• Join FlightAware (Why Join?)
  • Login
  • US Flag 
11:03PM EDT


 

Airport Tracker/Info


-or-


 

Live Flight TrackerFlight Track Log ✈ ASH2615 ✈ 31-Jul-2013 ✈ KCLT - KCHS

Flight Track Log - Related Links

Times and Time Zones

All times are in EDT time to prevent confusion due to time zone crossing. See the ASH2615 flight status page for this flight to view local times or setup timezone preferences in your user account.

Time Position Orientation Groundspeed Altitude Reporting Facility
EDT Latitude Longitude Course Direction KTS MPH feet Rate Location/Type
09:49AM 35.1908 -80.9356 180° South 155 178 1,600  Level Atlanta Center
09:49AM 35.1553 -80.9319 175° South 181 208 2,700 1,740 Climbing Atlanta Center
09:50AM 35.1050 -80.9261 175° South 265 305 4,100 2,820 Climbing Atlanta Center
09:51AM 35.0317 -80.9111 170° South 271 312 7,500 3,120 Climbing Atlanta Center
09:52AM 34.9522 -80.9042 176° South 301 346 10,400 2,400 Climbing Atlanta Center
09:53AM 34.8667 -80.9047 180° South 314 361 12,300 1,620 Climbing Atlanta Center
09:54AM 34.6918 -80.7396 180° South  Level Estimated
09:55AM 34.6781 -80.8981 178° South 355 409 15,300  Level Jacksonville Center
09:56AM 34.5717 -80.8906 177° South 378 435 16,000 300 Climbing Jacksonville Center
09:57AM 34.4672 -80.8803 175° South 381 438 16,000  Level Jacksonville Center
09:58AM 34.3564 -80.8653 174° South 392 451 16,000 -60 Level Jacksonville Center
09:59AM 34.2350 -80.8431 171° South 401 461 15,900 900 Descending Jacksonville Center
10:00AM 34.1261 -80.8231 171° South 401 461 17,800 1,800 Climbing Jacksonville Center
10:01AM 34.0111 -80.8056 173° South 411 473 19,600 1,080 Climbing Jacksonville Center
10:02AM 33.9044 -80.7856 171° South 423 487 20,000 -120 Climbing Jacksonville Center
10:03AM 33.7872 -80.7661 172° South 428 493 19,400 -1,140 Descending Jacksonville Center
10:04AM 33.6700 -80.7489 173° South 428 493 17,800 -1,740 Descending Jacksonville Center
10:05AM 33.5528 -80.7292 172° South 428 493 16,000 -1,740 Descending Jacksonville Center
10:06AM 33.4419 -80.7094 172° South 422 486 14,400 -1,980 Descending Jacksonville Center
10:07AM 33.3353 -80.6922 172° South 405 466 12,100 -1,740 Descending Jacksonville Center
10:08AM 33.2364 -80.6575 164° South 387 445 11,000 -900 Descending Jacksonville Center
10:09AM 33.1969 -80.5567 115° Southeast 330 380 10,400 -1,080 Descending Jacksonville Center
10:10AM 33.1681 -80.4631 110° East 302 348 8,900 -1,560 Descending Jacksonville Center
10:11AM 33.1392 -80.3747 111° Southeast 290 334 7,300 -1,560 Descending Jacksonville Center
10:12AM 33.1125 -80.2911 111° Southeast 284 327 5,800 -1,680 Descending Jacksonville Center
10:13AM 33.0811 -80.1903 110° East 284 327 4,000 -1,680 Descending Jacksonville Center
10:14AM 33.0544 -80.1119 112° Southeast 270 311 2,500 -1,200 Descending Jacksonville Center
10:15AM 33.0278 -80.0358 113° Southeast 262 302 1,600 -900 Descending Jacksonville Center